MST,Max TemperatureF,Mean TemperatureF,Min TemperatureF,Max Dew PointF,MeanDew PointF,Min DewpointF,Max Humidity, Mean Humidity, Min Humidity, Max Sea Level PressureIn, Mean Sea Level PressureIn, Min Sea Level PressureIn, Max VisibilityMiles, Mean VisibilityMiles, Min VisibilityMiles, Max Wind SpeedMPH, Mean Wind SpeedMPH, Max Gust SpeedMPH,PrecipitationIn, CloudCover, Events, WindDirDegrees
2014-3-1,78,68,57,55,47,42,67,49,31,29.93,29.81,29.75,10,10,5,26,7,35,0.07,5,Rain,324
2014-3-2,72,61,50,47,42,39,77,54,31,30.12,30.05,29.95,10,10,10,10,3,14,0.00,0,,202
2014-3-3,79,66,53,46,41,33,71,45,19,30.07,30.01,29.95,10,10,10,13,4,18,0.00,3,,349
2014-3-4,82,68,54,43,41,35,66,43,20,29.96,29.91,29.84,10,10,10,15,3,19,0.00,4,,255
2014-3-5,88,72,56,43,37,27,61,36,11,30.04,29.96,29.91,10,10,10,16,4,19,0.00,2,,41
2014-3-6,88,74,60,45,38,34,45,31,16,29.99,29.91,29.82,10,10,10,12,4,13,0.00,4,,204
2014-3-7,87,73,58,45,32,21,57,33,9,29.92,29.86,29.81,10,10,10,21,8,26,0.00,2,,357
2014-3-8,84,75,65,23,20,17,19,14,9,30.09,30.02,29.92,10,10,10,25,12,31,0.00,0,,357
2014-3-9,86,73,60,31,23,18,28,18,8,30.21,30.10,30.02,10,10,10,23,9,30,0.00,0,,52
2014-3-10,87,72,56,43,26,15,44,26,7,30.06,29.98,29.89,10,10,10,13,6,15,0.00,1,,20
2014-3-11,85,71,57,40,24,10,51,29,7,29.99,29.94,29.90,10,10,10,20,9,26,0.00,2,,16
2014-3-12,82,71,60,24,16,11,22,15,8,30.06,29.97,29.91,10,10,10,22,9,27,0.00,2,,353
2014-3-13,84,69,54,30,23,17,32,21,9,29.92,29.85,29.77,10,10,10,15,5,20,0.00,4,,351
2014-3-14,88,70,52,41,28,12,59,33,6,30.00,29.94,29.86,10,10,8,20,6,29,0.00,1,,295
2014-3-15,89,72,54,42,20,4,59,20,4,30.15,30.08,30.00,10,10,10,25,10,32,0.00,0,,343
2014-3-16,86,71,55,27,15,1,24,14,4,30.27,30.15,30.04,10,10,10,13,6,16,0.00,0,,330
2014-3-17,92,74,56,33,22,8,30,18,5,30.03,29.79,29.61,10,10,10,18,9,22,0.00,3,,197
2014-3-18,80,71,62,39,7,-2,40,22,4,29.91,29.81,29.65,10,10,10,26,12,33,0.00,3,,1
2014-3-19,84,71,57,22,7,-3,18,11,4,30.06,29.99,29.92,10,10,10,20,6,24,0.00,0,,345
2014-3-20,84,69,54,28,14,0,35,20,4,30.01,29.93,29.83,10,10,10,14,4,16,0.00,4,,2
2014-3-21,85,70,54,44,25,15,40,25,9,29.91,29.84,29.57,10,10,8,13,5,15,0.00,1,,204
2014-3-22,84,71,58,51,41,31,69,43,16,29.96,29.90,29.84,10,10,10,12,4,15,0.00,0,,236
2014-3-23,87,73,58,50,42,33,57,37,16,30.05,29.97,29.91,10,10,10,9,3,11,0.00,0,,193
2014-3-24,90,76,61,43,38,25,51,31,10,30.02,29.94,29.87,10,10,10,9,3,16,0.00,3,,249
2014-3-25,90,74,58,44,39,31,51,32,13,29.87,29.79,29.69,10,10,2,16,5,21,0.00,1,,207
2014-3-26,78,70,61,43,39,34,48,34,20,29.89,29.81,29.77,10,9,3,35,17,40,0.00,3,,286
2014-3-27,78,67,56,42,37,30,57,38,18,29.99,29.92,29.88,10,10,10,21,10,26,0.00,1,,284
2014-3-28,83,68,52,42,36,27,59,36,13,30.12,30.05,29.99,10,10,10,10,4,17,0.00,3,,288
2014-3-29,88,72,56,40,34,28,47,30,12,30.07,29.97,29.86,10,10,10,10,3,13,0.00,0,,279
2014-3-30,84,74,63,40,33,19,37,24,10,29.91,29.87,29.81,10,8,2,21,9,27,0.00,3,,291
2014-3-31,84,70,55,43,28,5,55,30,5,29.96,29.89,29.82,10,10,10,17,8,22,0.00,0,,280